Long Lane, Missouri
Current Conditions -  °F | °C
As of 9:55 PM on Sunday 23 Nov 2014 (Local Time) from KH21 Reporting Station
Moderate Rain Moderate Rain  
Wind Chill: 40°   Ceiling: 600
Heat Index: 46°   Visibility: 5mi
Dew Point: 45°   Wind: 16mph
Humidity: 93%   Direction: 280°W
Pressure: 29.33"   Gusts: 25mph
Location:  37.61°N, 92.91°W
Report Text: KH21 240355Z AUTO 28014G22KT 5SM RA BKN006 BKN012 OVC065 08/07 A2933 RMK AO2 P0025
Loading
Personal Weather Stations






























Interactive Weather Map New forecast layout! Learn more

10-Day Weather Forecast

Advertisements
Track Severe Weather on mobile